createdAt,value
2022-11-24T00:00:22.022Z,3.8
2022-11-24T00:01:32.133Z,3.8
2022-11-24T00:02:41.273Z,3.8
2022-11-24T00:03:51.401Z,3.9
2022-11-24T00:05:01.505Z,3.8
2022-11-24T00:06:11.629Z,3.8
2022-11-24T00:07:21.758Z,3.9
2022-11-24T00:08:31.878Z,3.8
2022-11-24T00:09:41.976Z,3.9
2022-11-24T00:10:52.098Z,3.9
2022-11-24T00:12:02.222Z,3.9
2022-11-24T00:13:12.330Z,3.9
2022-11-24T00:14:22.461Z,3.9
2022-11-24T00:15:32.573Z,3.9
2022-11-24T00:16:42.701Z,3.9
2022-11-24T00:17:51.837Z,3.9
2022-11-24T00:19:01.939Z,3.9
2022-11-24T00:20:12.059Z,3.9
2022-11-24T00:21:22.190Z,3.9
2022-11-24T00:22:32.294Z,3.9
2022-11-24T00:23:42.414Z,3.9
2022-11-24T00:24:52.533Z,3.9
2022-11-24T00:26:02.655Z,3.9
2022-11-24T00:27:12.780Z,3.9
2022-11-24T00:28:22.883Z,3.9
2022-11-24T00:30:43.122Z,3.9
2022-11-24T00:31:53.247Z,3.9
2022-11-24T00:33:02.370Z,3.9
2022-11-24T00:34:12.498Z,3.9
2022-11-24T00:35:22.618Z,3.9
2022-11-24T00:37:42.861Z,3.9
2022-11-24T00:38:52.979Z,3.9
2022-11-24T00:40:03.085Z,3.9
2022-11-24T00:41:13.197Z,4
2022-11-24T00:42:23.321Z,3.9
2022-11-24T00:43:33.446Z,3.9
2022-11-24T00:44:43.551Z,4
2022-11-24T00:45:53.673Z,3.9
2022-11-24T00:47:03.790Z,3.9
2022-11-24T00:48:12.923Z,4
2022-11-24T00:49:23.039Z,3.9
2022-11-24T00:50:33.166Z,4
2022-11-24T00:51:43.290Z,4
2022-11-24T00:52:53.393Z,4
2022-11-24T00:54:03.528Z,4
2022-11-24T00:55:13.642Z,4
2022-11-24T00:56:23.749Z,4
2022-11-24T00:57:33.874Z,4
2022-11-24T00:58:43.987Z,4
2022-11-24T00:59:54.112Z,4
2022-11-24T01:01:04.235Z,4
2022-11-24T01:02:14.345Z,4
2022-11-24T01:03:23.487Z,4
2022-11-24T01:05:43.713Z,4
2022-11-24T01:06:53.836Z,4
2022-11-24T01:08:03.950Z,4
2022-11-24T01:09:14.073Z,4
2022-11-24T01:10:24.193Z,4
2022-11-24T01:11:34.318Z,4
2022-11-24T01:12:44.422Z,4
2022-11-24T01:13:54.551Z,4.1
2022-11-24T01:15:04.654Z,4.1
2022-11-24T01:16:14.775Z,4
2022-11-24T01:17:24.907Z,4
2022-11-24T01:18:35.010Z,4
2022-11-24T01:19:45.259Z,4
2022-11-24T01:20:55.381Z,4
2022-11-24T01:22:05.488Z,4
2022-11-24T01:23:15.617Z,4
2022-11-24T01:24:25.740Z,4
2022-11-24T01:25:35.851Z,4
2022-11-24T01:26:45.971Z,4
2022-11-24T01:27:56.083Z,4
2022-11-24T01:29:06.211Z,4
2022-11-24T01:30:16.311Z,4
2022-11-24T01:31:26.435Z,4
2022-11-24T01:32:36.560Z,4
2022-11-24T01:33:46.671Z,4
2022-11-24T01:34:56.920Z,4
2022-11-24T01:36:07.028Z,4
2022-11-24T01:37:17.148Z,4
2022-11-24T01:38:27.269Z,4
2022-11-24T01:39:37.390Z,4
2022-11-24T01:40:47.512Z,4
2022-11-24T01:41:57.631Z,4
2022-11-24T01:43:07.740Z,4
2022-11-24T01:44:17.850Z,4
2022-11-24T01:45:27.974Z,4
2022-11-24T01:47:48.214Z,4
2022-11-24T01:48:58.334Z,4
2022-11-24T01:50:07.000Z,4
2022-11-24T01:51:17.593Z,4.1
2022-11-24T01:52:27.697Z,4
2022-11-24T01:54:47.941Z,4
2022-11-24T01:55:58.065Z,4
2022-11-24T01:57:08.178Z,4.1
2022-11-24T01:58:18.299Z,4.1
2022-11-24T01:59:28.400Z,4
2022-11-24T02:00:38.523Z,4
2022-11-24T02:01:48.652Z,4
2022-11-24T02:02:58.762Z,4
2022-11-24T02:04:08.874Z,4
2022-11-24T02:05:18.026Z,4.1
2022-11-24T02:06:28.132Z,4
2022-11-24T02:07:38.252Z,4
2022-11-24T02:08:48.373Z,4
2022-11-24T02:09:58.494Z,4
2022-11-24T02:11:08.608Z,4
2022-11-24T02:12:18.729Z,4
2022-11-24T02:13:28.837Z,4
2022-11-24T02:14:38.969Z,4.1
2022-11-24T02:15:49.069Z,4
2022-11-24T02:16:59.194Z,4
2022-11-24T02:18:09.323Z,4
2022-11-24T02:19:19.428Z,4
2022-11-24T02:20:28.563Z,4
2022-11-24T02:21:38.689Z,4
2022-11-24T02:22:48.798Z,4
2022-11-24T02:23:58.922Z,4
2022-11-24T02:25:09.044Z,4
2022-11-24T02:26:19.149Z,4
2022-11-24T02:27:29.266Z,4
2022-11-24T02:28:39.389Z,4
2022-11-24T02:29:49.512Z,4.1
2022-11-24T02:30:59.622Z,4.1
2022-11-24T02:32:09.751Z,4.1
2022-11-24T02:33:19.863Z,4
2022-11-24T02:34:29.992Z,4
2022-11-24T02:35:39.110Z,4
2022-11-24T02:36:49.232Z,4
2022-11-24T02:37:59.356Z,4
2022-11-24T02:39:09.463Z,4
2022-11-24T02:40:19.588Z,4.1
2022-11-24T02:41:29.717Z,4.1
2022-11-24T02:43:49.948Z,4.1
2022-11-24T02:45:00.056Z,4
2022-11-24T02:46:10.183Z,4
2022-11-24T02:47:20.308Z,4
2022-11-24T02:48:30.424Z,4
2022-11-24T02:49:40.531Z,4
2022-11-24T02:50:49.670Z,4
2022-11-24T02:51:59.793Z,4
2022-11-24T02:53:09.900Z,4
2022-11-24T02:54:20.029Z,4
2022-11-24T02:55:30.138Z,4
2022-11-24T02:56:40.258Z,4
2022-11-24T02:57:50.381Z,4
2022-11-24T02:59:00.494Z,3.9
2022-11-24T03:00:10.622Z,3.9
2022-11-24T03:01:20.729Z,3.9
2022-11-24T03:02:30.858Z,3.9
2022-11-24T03:04:51.090Z,3.9
2022-11-24T03:06:01.321Z,3.9
2022-11-24T03:07:11.444Z,3.9
2022-11-24T03:08:21.561Z,3.9
2022-11-24T03:09:31.684Z,3.9
2022-11-24T03:10:41.791Z,3.9
2022-11-24T03:11:52.035Z,3.9
2022-11-24T03:13:02.152Z,3.9
2022-11-24T03:14:12.281Z,3.9
2022-11-24T03:15:22.402Z,3.8
2022-11-24T03:16:32.510Z,3.8
2022-11-24T03:17:42.625Z,3.9
2022-11-24T03:18:52.753Z,3.8
2022-11-24T03:20:02.869Z,3.9
2022-11-24T03:21:12.978Z,3.9
2022-11-24T03:22:23.103Z,3.9
2022-11-24T03:23:33.227Z,3.9
2022-11-24T03:24:43.333Z,3.9
2022-11-24T03:25:53.461Z,3.9
2022-11-24T03:27:02.601Z,3.8
2022-11-24T03:28:12.709Z,3.9
2022-11-24T03:29:22.828Z,3.9
2022-11-24T03:30:32.941Z,3.9
2022-11-24T03:31:43.064Z,3.8
2022-11-24T03:32:53.176Z,3.8
2022-11-24T03:34:03.300Z,3.8
2022-11-24T03:35:13.418Z,3.8
2022-11-24T03:36:23.542Z,3.8
2022-11-24T03:37:33.658Z,3.8
2022-11-24T03:38:43.774Z,3.8
2022-11-24T03:39:53.894Z,3.8
2022-11-24T03:41:03.999Z,3.8
2022-11-24T03:42:14.249Z,3.8
2022-11-24T03:43:24.366Z,3.8
2022-11-24T03:44:34.487Z,3.8
2022-11-24T03:45:44.610Z,3.8
2022-11-24T03:46:54.714Z,3.8
2022-11-24T03:48:04.848Z,3.8
2022-11-24T03:49:14.967Z,3.8
2022-11-24T03:50:25.075Z,3.8
2022-11-24T03:51:35.201Z,3.8
2022-11-24T03:52:45.303Z,3.8
2022-11-24T03:53:55.433Z,3.8
2022-11-24T03:55:05.552Z,3.8
2022-11-24T03:56:15.662Z,3.8
2022-11-24T03:57:24.806Z,3.8
2022-11-24T03:58:34.924Z,3.8
2022-11-24T03:59:45.046Z,3.8
2022-11-24T04:00:55.163Z,3.8
2022-11-24T04:02:05.282Z,3.8
2022-11-24T04:03:15.387Z,3.8
2022-11-24T04:04:25.515Z,3.8
2022-11-24T04:05:35.636Z,3.8
2022-11-24T04:06:45.746Z,3.8
2022-11-24T04:07:55.869Z,3.8
2022-11-24T04:09:05.987Z,3.8
2022-11-24T04:10:16.089Z,3.8
2022-11-24T04:11:26.219Z,3.8
2022-11-24T04:12:35.359Z,3.8
2022-11-24T04:13:45.465Z,3.8
2022-11-24T04:14:55.591Z,3.8
2022-11-24T04:16:05.698Z,3.8
2022-11-24T04:17:15.825Z,3.8
2022-11-24T04:18:25.945Z,3.8
2022-11-24T04:19:36.062Z,3.8
2022-11-24T04:20:46.179Z,3.8
2022-11-24T04:21:56.000Z,3.8
2022-11-24T04:23:06.411Z,3.7
2022-11-24T04:24:16.535Z,3.7
2022-11-24T04:25:26.653Z,3.7
2022-11-24T04:26:36.761Z,3.7
2022-11-24T04:27:45.911Z,3.7
2022-11-24T04:28:56.017Z,3.7
2022-11-24T04:30:06.144Z,3.7
2022-11-24T04:31:16.252Z,3.7
2022-11-24T04:32:26.372Z,3.6
2022-11-24T04:33:36.496Z,3.6
2022-11-24T04:34:46.613Z,3.7
2022-11-24T04:35:56.738Z,3.7
2022-11-24T04:37:06.844Z,3.7
2022-11-24T04:38:16.970Z,3.7
2022-11-24T04:39:27.090Z,3.7
2022-11-24T04:40:37.192Z,3.7
2022-11-24T04:41:47.315Z,3.7
2022-11-24T04:42:56.462Z,3.6
2022-11-24T04:44:06.569Z,3.7
2022-11-24T04:45:16.693Z,3.6
2022-11-24T04:46:26.798Z,3.6
2022-11-24T04:47:36.935Z,3.6
2022-11-24T04:48:47.036Z,3.7
2022-11-24T04:49:57.152Z,3.7
2022-11-24T04:51:07.271Z,3.7
2022-11-24T04:52:17.398Z,3.6
2022-11-24T04:53:27.517Z,3.6
2022-11-24T04:54:37.644Z,3.7
2022-11-24T04:55:47.760Z,3.7
2022-11-24T04:56:57.868Z,3.7
2022-11-24T04:58:07.005Z,3.7
2022-11-24T04:59:17.117Z,3.7
2022-11-24T05:00:27.236Z,3.6
2022-11-24T05:01:37.366Z,3.6
2022-11-24T05:03:57.593Z,3.6
2022-11-24T05:05:07.723Z,3.6
2022-11-24T05:06:17.826Z,3.6
2022-11-24T05:07:27.944Z,3.6
2022-11-24T05:08:38.072Z,3.6
2022-11-24T05:10:58.296Z,3.6
2022-11-24T05:12:08.424Z,3.6
2022-11-24T05:13:17.565Z,3.6
2022-11-24T05:14:27.675Z,3.6
2022-11-24T05:15:37.803Z,3.6
2022-11-24T05:17:58.029Z,3.6
2022-11-24T05:19:07.167Z,3.6
2022-11-24T05:20:16.306Z,3.6
2022-11-24T05:21:26.431Z,3.6
2022-11-24T05:23:46.669Z,3.6
2022-11-24T05:24:56.773Z,3.6
2022-11-24T05:26:06.898Z,3.6
2022-11-24T05:27:17.008Z,3.6
2022-11-24T05:28:27.138Z,3.6
2022-11-24T05:29:37.259Z,3.6
2022-11-24T05:30:47.370Z,3.6
2022-11-24T05:31:57.494Z,3.7
2022-11-24T05:33:07.599Z,3.7
2022-11-24T05:34:17.718Z,3.6
2022-11-24T05:35:27.969Z,3.6
2022-11-24T05:36:38.089Z,3.6
2022-11-24T05:38:58.326Z,3.6
2022-11-24T05:40:07.461Z,3.6
2022-11-24T05:41:16.601Z,3.7
2022-11-24T05:42:26.724Z,3.6
2022-11-24T05:43:36.824Z,3.6
2022-11-24T05:44:46.952Z,3.6
2022-11-24T05:45:57.059Z,3.6
2022-11-24T05:47:07.181Z,3.7
2022-11-24T05:48:17.304Z,3.6
2022-11-24T05:49:27.424Z,3.6
2022-11-24T05:50:37.547Z,3.6
2022-11-24T05:51:47.662Z,3.6
2022-11-24T05:52:56.000Z,3.6
2022-11-24T05:54:07.043Z,3.7
2022-11-24T05:55:17.167Z,3.6
2022-11-24T05:56:27.274Z,3.7
2022-11-24T05:57:37.402Z,3.7
2022-11-24T05:58:47.514Z,3.6
2022-11-24T05:59:57.644Z,3.6
2022-11-24T06:01:07.748Z,3.6
2022-11-24T06:02:17.874Z,3.6
2022-11-24T06:03:27.986Z,3.6
2022-11-24T06:04:38.111Z,3.6
2022-11-24T06:05:47.244Z,3.7
2022-11-24T06:06:56.378Z,3.6
2022-11-24T06:08:06.509Z,3.6
2022-11-24T06:09:16.631Z,3.6
2022-11-24T06:10:26.735Z,3.6
2022-11-24T06:11:36.857Z,3.7
2022-11-24T06:12:46.979Z,3.7
2022-11-24T06:13:57.102Z,3.7
2022-11-24T06:15:07.222Z,3.6
2022-11-24T06:16:17.329Z,3.6
2022-11-24T06:17:27.460Z,3.6
2022-11-24T06:18:37.564Z,3.6
2022-11-24T06:19:47.690Z,3.6
2022-11-24T06:20:57.796Z,3.6
2022-11-24T06:22:06.930Z,3.6
2022-11-24T06:23:17.059Z,3.6
2022-11-24T06:24:27.185Z,3.6
2022-11-24T06:25:37.298Z,3.6
2022-11-24T06:26:47.419Z,3.6
2022-11-24T06:27:57.523Z,3.6
2022-11-24T06:29:07.645Z,3.6
2022-11-24T06:30:17.772Z,3.6
2022-11-24T06:31:27.882Z,3.6
2022-11-24T06:32:38.005Z,3.7
2022-11-24T06:33:48.118Z,3.7
2022-11-24T06:34:58.240Z,3.7
2022-11-24T06:36:08.357Z,3.6
2022-11-24T06:37:17.494Z,3.7
2022-11-24T06:38:27.599Z,3.6
2022-11-24T06:39:37.724Z,3.7
2022-11-24T06:41:57.970Z,3.6
2022-11-24T06:43:08.076Z,3.6
2022-11-24T06:44:18.202Z,3.6
2022-11-24T06:45:28.309Z,3.6
2022-11-24T06:46:38.437Z,3.6
2022-11-24T06:47:48.563Z,3.7
2022-11-24T06:48:58.683Z,3.6
2022-11-24T06:50:08.783Z,3.6
2022-11-24T06:51:18.913Z,3.7
2022-11-24T06:52:28.037Z,3.7
2022-11-24T06:53:38.165Z,3.7
2022-11-24T06:54:48.270Z,3.7
2022-11-24T06:55:58.397Z,3.7
2022-11-24T06:57:08.516Z,3.7
2022-11-24T06:58:18.626Z,3.7
2022-11-24T06:59:28.755Z,3.7
2022-11-24T07:00:38.878Z,3.7
2022-11-24T07:01:48.992Z,3.7
2022-11-24T07:02:59.100Z,3.7
2022-11-24T07:04:09.221Z,3.7
2022-11-24T07:05:19.349Z,3.8
2022-11-24T07:06:28.484Z,3.8
2022-11-24T07:07:38.610Z,3.7
2022-11-24T07:08:48.711Z,3.7
2022-11-24T07:09:58.836Z,3.7
2022-11-24T07:11:08.956Z,3.7
2022-11-24T07:12:19.077Z,3.7
2022-11-24T07:13:29.195Z,3.8
2022-11-24T07:14:39.316Z,3.8
2022-11-24T07:15:49.419Z,3.8
2022-11-24T07:16:59.549Z,3.8
2022-11-24T07:19:19.788Z,3.8
2022-11-24T07:20:29.905Z,3.8
2022-11-24T07:21:39.028Z,3.8
2022-11-24T07:22:49.143Z,3.8
2022-11-24T07:23:59.266Z,3.8
2022-11-24T07:25:09.392Z,3.9
2022-11-24T07:26:19.499Z,3.9
2022-11-24T07:27:29.629Z,3.9
2022-11-24T07:28:39.735Z,3.9
2022-11-24T07:29:49.860Z,3.9
2022-11-24T07:30:59.984Z,3.9
2022-11-24T07:32:10.093Z,3.9
2022-11-24T07:33:20.217Z,3.9
2022-11-24T07:34:30.331Z,3.9
2022-11-24T07:35:40.458Z,3.9
2022-11-24T07:36:49.575Z,4
2022-11-24T07:37:59.705Z,4
2022-11-24T07:39:09.812Z,4
2022-11-24T07:40:19.932Z,4
2022-11-24T07:41:30.057Z,4
2022-11-24T07:42:40.175Z,4.1
2022-11-24T07:43:50.302Z,4.1
2022-11-24T07:45:00.407Z,4.1
2022-11-24T07:46:10.531Z,4.1
2022-11-24T07:47:20.650Z,4.1
2022-11-24T07:48:30.774Z,4.1
2022-11-24T07:49:40.880Z,4.1
2022-11-24T07:50:51.006Z,4.1
2022-11-24T07:52:00.138Z,4.1
2022-11-24T07:53:10.249Z,4.2
2022-11-24T07:54:20.370Z,4.2
2022-11-24T07:55:30.493Z,4.1
2022-11-24T07:56:40.609Z,4.2
2022-11-24T07:57:50.719Z,4.2
2022-11-24T07:59:00.845Z,4.2
2022-11-24T08:00:10.952Z,4.2
2022-11-24T08:01:21.082Z,4.2
2022-11-24T08:02:31.205Z,4.2
2022-11-24T08:03:41.318Z,4.2
2022-11-24T08:04:51.442Z,4.2
2022-11-24T08:06:01.548Z,4.3
2022-11-24T08:07:10.684Z,4.2
2022-11-24T08:08:20.808Z,4.2
2022-11-24T08:09:30.922Z,4.2
2022-11-24T08:10:41.049Z,4.3
2022-11-24T08:11:51.166Z,4.2
2022-11-24T08:13:01.278Z,4.3
2022-11-24T08:14:11.387Z,4.3
2022-11-24T08:15:21.517Z,4.3
2022-11-24T08:16:31.629Z,4.3
2022-11-24T08:17:41.744Z,4.3
2022-11-24T08:18:51.871Z,4.3
2022-11-24T08:20:01.983Z,4.3
2022-11-24T08:21:12.097Z,4.3
2022-11-24T08:22:21.236Z,4.3
2022-11-24T08:23:31.349Z,4.3
2022-11-24T08:24:41.480Z,4.3
2022-11-24T08:25:51.601Z,4.4
2022-11-24T08:27:01.706Z,4.3
2022-11-24T08:29:21.943Z,4.4
2022-11-24T08:30:32.061Z,4.5
2022-11-24T08:31:42.191Z,4.5
2022-11-24T08:32:52.303Z,4.5
2022-11-24T08:34:02.413Z,4.5
2022-11-24T08:35:12.538Z,4.5
2022-11-24T08:36:22.651Z,4.6
2022-11-24T08:37:32.898Z,4.6
2022-11-24T08:38:43.005Z,4.5
2022-11-24T08:39:53.133Z,4.5
2022-11-24T08:41:03.248Z,4.5
2022-11-24T08:42:13.357Z,4.6
2022-11-24T08:43:23.489Z,4.7
2022-11-24T08:44:33.593Z,4.6
2022-11-24T08:45:43.719Z,4.6
2022-11-24T08:46:53.846Z,4.6
2022-11-24T08:48:03.965Z,4.6
2022-11-24T08:49:14.070Z,4.7
2022-11-24T08:50:24.196Z,4.8
2022-11-24T08:51:34.304Z,4.8
2022-11-24T08:52:43.440Z,4.8
2022-11-24T08:53:53.560Z,4.8
2022-11-24T08:56:13.794Z,4.8
2022-11-24T08:57:23.926Z,4.8
2022-11-24T08:58:34.027Z,4.8
2022-11-24T08:59:44.151Z,4.8
2022-11-24T09:00:54.282Z,4.8
2022-11-24T09:02:04.390Z,4.8
2022-11-24T09:03:14.508Z,4.9
2022-11-24T09:04:24.627Z,4.9
2022-11-24T09:05:34.741Z,4.9
2022-11-24T09:06:44.867Z,4.9
2022-11-24T09:07:53.987Z,4.9
2022-11-24T09:09:04.109Z,4.9
2022-11-24T09:10:14.239Z,5
2022-11-24T09:11:24.344Z,5.1
2022-11-24T09:12:34.469Z,5
2022-11-24T09:13:44.580Z,5.1
2022-11-24T09:14:54.711Z,5.2
2022-11-24T09:16:04.822Z,5.2
2022-11-24T09:17:14.945Z,5.1
2022-11-24T09:18:25.057Z,5
2022-11-24T09:19:35.177Z,5.1
2022-11-24T09:20:45.285Z,5.1
2022-11-24T09:21:55.410Z,5.1
2022-11-24T09:23:04.553Z,5.1
2022-11-24T09:24:14.658Z,5
2022-11-24T09:25:24.784Z,5
2022-11-24T09:26:34.894Z,5
2022-11-24T09:27:45.010Z,5
2022-11-24T09:28:54.163Z,5.1
2022-11-24T09:30:03.306Z,5.1
2022-11-24T09:31:13.413Z,5
2022-11-24T09:32:23.539Z,5
2022-11-24T09:34:43.761Z,5
2022-11-24T09:35:53.883Z,5
2022-11-24T09:37:03.996Z,5
2022-11-24T09:38:14.124Z,5
2022-11-24T09:39:24.248Z,5
2022-11-24T09:40:33.387Z,5
2022-11-24T09:41:42.522Z,5
2022-11-24T09:42:52.628Z,5
2022-11-24T09:44:02.753Z,5
2022-11-24T09:45:12.873Z,4.9
2022-11-24T09:46:22.999Z,5
2022-11-24T09:47:33.111Z,5
2022-11-24T09:48:43.231Z,5
2022-11-24T09:49:53.337Z,5
2022-11-24T09:51:03.461Z,5
2022-11-24T09:52:13.585Z,5
2022-11-24T09:53:23.689Z,5
2022-11-24T09:54:33.818Z,4.9
2022-11-24T09:55:43.943Z,5
2022-11-24T09:56:53.075Z,5
2022-11-24T09:58:03.192Z,5
2022-11-24T09:59:13.000Z,5
2022-11-24T10:00:23.431Z,5
2022-11-24T10:01:33.540Z,5
2022-11-24T10:02:43.656Z,5
2022-11-24T10:03:53.782Z,5
2022-11-24T10:05:03.887Z,5
2022-11-24T10:06:14.017Z,5
2022-11-24T10:07:24.127Z,4.9
2022-11-24T10:08:34.242Z,5
2022-11-24T10:09:44.367Z,4.9
2022-11-24T10:10:54.485Z,4.9
2022-11-24T10:12:03.612Z,4.9
2022-11-24T10:13:13.733Z,4.9
2022-11-24T10:14:23.862Z,4.9
2022-11-24T10:15:33.966Z,5
2022-11-24T10:16:44.083Z,5
2022-11-24T10:17:54.214Z,5
2022-11-24T10:19:04.322Z,5.1
2022-11-24T10:20:14.447Z,5.1
2022-11-24T10:21:24.555Z,5.1
2022-11-24T10:22:34.683Z,5.1
2022-11-24T10:23:44.810Z,5.1
2022-11-24T10:24:54.919Z,5.1
2022-11-24T10:26:05.033Z,5.1
2022-11-24T10:27:14.179Z,5.1
2022-11-24T10:28:24.281Z,5.1
2022-11-24T10:29:34.401Z,5.1
2022-11-24T10:30:44.527Z,5.2
2022-11-24T10:31:54.632Z,5.1
2022-11-24T10:33:04.761Z,5.1
2022-11-24T10:34:14.870Z,5.1
2022-11-24T10:35:24.997Z,5.2
2022-11-24T10:36:35.119Z,5.2
2022-11-24T10:37:45.240Z,5.2
2022-11-24T10:38:55.358Z,5.2
2022-11-24T10:40:05.476Z,5.3
2022-11-24T10:41:15.582Z,5.3
2022-11-24T10:42:24.718Z,5.3
2022-11-24T10:43:34.846Z,5.3
2022-11-24T10:44:44.950Z,5.3
2022-11-24T10:45:55.076Z,5.4
2022-11-24T10:47:05.184Z,5.4
2022-11-24T10:48:15.305Z,5.5
2022-11-24T10:49:25.422Z,5.5
2022-11-24T10:50:35.535Z,5.5
2022-11-24T10:51:45.655Z,5.5
2022-11-24T10:52:55.781Z,5.3
2022-11-24T10:54:05.900Z,5.4
2022-11-24T10:55:16.014Z,5.5
2022-11-24T10:56:26.126Z,5.4
2022-11-24T10:57:36.382Z,5.4
2022-11-24T10:58:46.486Z,5.5
2022-11-24T10:59:56.608Z,5.5
2022-11-24T11:01:06.853Z,5.6
2022-11-24T11:02:16.971Z,5.6
2022-11-24T11:03:27.093Z,5.7
2022-11-24T11:04:37.213Z,5.6
2022-11-24T11:05:47.335Z,5.5
2022-11-24T11:08:07.567Z,5.6
2022-11-24T11:09:17.689Z,5.5
2022-11-24T11:10:27.809Z,5.5
2022-11-24T11:11:37.915Z,5.5
2022-11-24T11:12:48.041Z,5.5
2022-11-24T11:15:08.281Z,5.5
2022-11-24T11:16:17.397Z,5.5
2022-11-24T11:17:27.526Z,5.5
2022-11-24T11:18:37.641Z,5.5
2022-11-24T11:19:47.770Z,5.5
2022-11-24T11:20:57.881Z,5.5
2022-11-24T11:22:08.005Z,5.5
2022-11-24T11:24:28.241Z,5.4
2022-11-24T11:25:38.489Z,5.5
2022-11-24T11:26:47.637Z,5.5
2022-11-24T11:27:57.756Z,5.5
2022-11-24T11:29:07.862Z,5.5
2022-11-24T11:30:17.976Z,5.6
2022-11-24T11:31:28.107Z,5.6
2022-11-24T11:32:38.219Z,5.6
2022-11-24T11:33:48.345Z,5.6
2022-11-24T11:34:58.460Z,5.7
2022-11-24T11:36:08.572Z,5.7
2022-11-24T11:37:18.701Z,5.7
2022-11-24T11:38:27.838Z,5.7
2022-11-24T11:39:36.981Z,5.7
2022-11-24T11:40:47.082Z,5.6
2022-11-24T11:41:57.206Z,5.6
2022-11-24T11:43:07.333Z,5.6
2022-11-24T11:44:17.434Z,5.6
2022-11-24T11:45:27.564Z,5.6
2022-11-24T11:46:37.677Z,5.6
2022-11-24T11:47:47.801Z,5.6
2022-11-24T11:48:57.924Z,5.6
2022-11-24T11:50:08.026Z,5.6
2022-11-24T11:51:18.153Z,5.6
2022-11-24T11:52:28.278Z,5.5
2022-11-24T11:53:38.384Z,5.6
2022-11-24T11:54:48.627Z,5.6
2022-11-24T11:55:58.752Z,5.5
2022-11-24T11:57:08.858Z,5.6
2022-11-24T11:58:18.987Z,5.6
2022-11-24T11:59:29.108Z,5.6
2022-11-24T12:00:39.211Z,5.6
2022-11-24T12:01:49.345Z,5.7
2022-11-24T12:02:59.458Z,5.7
2022-11-24T12:04:09.572Z,5.7
2022-11-24T12:05:19.684Z,5.6
2022-11-24T12:06:29.804Z,5.7
2022-11-24T12:07:39.916Z,5.7
2022-11-24T12:08:50.041Z,5.8
2022-11-24T12:09:59.179Z,5.8
2022-11-24T12:11:09.292Z,5.9
2022-11-24T12:12:19.420Z,5.9
2022-11-24T12:13:29.537Z,5.9
2022-11-24T12:15:49.771Z,6
2022-11-24T12:16:59.879Z,5.9
2022-11-24T12:18:10.012Z,5.9
2022-11-24T12:19:20.117Z,6
2022-11-24T12:20:30.242Z,6
2022-11-24T12:21:40.348Z,5.9
2022-11-24T12:22:50.474Z,5.9
2022-11-24T12:24:00.599Z,5.9
2022-11-24T12:25:09.735Z,5.9
2022-11-24T12:26:19.841Z,5.8
2022-11-24T12:27:29.962Z,5.8
2022-11-24T12:28:40.085Z,5.8
2022-11-24T12:29:50.210Z,5.8
2022-11-24T12:30:59.347Z,5.9
2022-11-24T12:32:08.000Z,5.9
2022-11-24T12:33:18.601Z,5.9
2022-11-24T12:34:28.707Z,5.8
2022-11-24T12:35:37.868Z,5.8
2022-11-24T12:36:46.986Z,5.8
2022-11-24T12:37:57.116Z,5.8
2022-11-24T12:39:07.226Z,5.8
2022-11-24T12:40:17.342Z,5.8
2022-11-24T12:41:27.466Z,5.8
2022-11-24T12:42:37.574Z,5.8
2022-11-24T12:43:47.698Z,5.8
2022-11-24T12:44:57.816Z,5.8
2022-11-24T12:46:07.944Z,5.8
2022-11-24T12:47:18.049Z,5.9
2022-11-24T12:48:28.176Z,5.8
2022-11-24T12:49:38.294Z,5.8
2022-11-24T12:50:48.411Z,5.8
2022-11-24T12:51:57.549Z,5.8
2022-11-24T12:53:07.671Z,5.8
2022-11-24T12:54:17.775Z,5.9
2022-11-24T12:55:27.888Z,5.8
2022-11-24T12:56:38.009Z,5.8
2022-11-24T12:57:48.139Z,5.8
2022-11-24T12:58:58.251Z,5.9
2022-11-24T13:00:08.375Z,5.9
2022-11-24T13:01:18.479Z,5.9
2022-11-24T13:03:38.714Z,5.9
2022-11-24T13:04:48.837Z,5.9
2022-11-24T13:05:58.962Z,5.9
2022-11-24T13:07:08.097Z,5.8
2022-11-24T13:08:18.221Z,5.8
2022-11-24T13:09:28.338Z,5.9
2022-11-24T13:10:38.439Z,5.9
2022-11-24T13:11:48.570Z,5.8
2022-11-24T13:12:58.691Z,5.9
2022-11-24T13:14:08.800Z,5.9
2022-11-24T13:15:18.912Z,5.9
2022-11-24T13:16:29.044Z,5.9
2022-11-24T13:17:39.155Z,5.9
2022-11-24T13:18:49.282Z,5.9
2022-11-24T13:19:59.390Z,6
2022-11-24T13:21:09.511Z,5.9
2022-11-24T13:22:18.648Z,5.9
2022-11-24T13:23:28.757Z,5.9
2022-11-24T13:24:38.882Z,6
2022-11-24T13:25:49.003Z,6
2022-11-24T13:26:59.108Z,6
2022-11-24T13:28:09.240Z,6
2022-11-24T13:29:19.360Z,5.9
2022-11-24T13:30:29.461Z,5.9
2022-11-24T13:31:39.586Z,5.9
2022-11-24T13:33:59.827Z,5.9
2022-11-24T13:35:09.934Z,6
2022-11-24T13:36:20.055Z,6
2022-11-24T13:37:29.188Z,6
2022-11-24T13:38:39.317Z,6
2022-11-24T13:39:49.426Z,5.9
2022-11-24T13:40:59.549Z,5.9
2022-11-24T13:42:09.671Z,6
2022-11-24T13:43:19.781Z,6
2022-11-24T13:44:29.894Z,6
2022-11-24T13:45:40.010Z,5.9
2022-11-24T13:46:50.142Z,5.9
2022-11-24T13:48:00.254Z,5.8
2022-11-24T13:49:10.368Z,5.9
2022-11-24T13:50:20.489Z,5.9
2022-11-24T13:51:30.618Z,5.9
2022-11-24T13:52:39.739Z,6
2022-11-24T13:53:49.857Z,6
2022-11-24T13:56:10.107Z,5.9
2022-11-24T13:57:20.225Z,5.9
2022-11-24T13:58:30.329Z,6
2022-11-24T13:59:40.458Z,6
2022-11-24T14:00:50.575Z,6
2022-11-24T14:02:00.683Z,6
2022-11-24T14:03:10.811Z,6
2022-11-24T14:05:31.040Z,6
2022-11-24T14:06:41.163Z,6
2022-11-24T14:07:50.302Z,6
2022-11-24T14:09:00.408Z,6
2022-11-24T14:10:10.526Z,6
2022-11-24T14:11:20.654Z,6
2022-11-24T14:12:30.765Z,6
2022-11-24T14:13:40.891Z,6
2022-11-24T14:14:50.998Z,6
2022-11-24T14:16:01.127Z,6.1
2022-11-24T14:17:11.235Z,6.1
2022-11-24T14:18:21.366Z,6.1
2022-11-24T14:19:31.485Z,6
2022-11-24T14:20:41.593Z,6
2022-11-24T14:21:51.704Z,6
2022-11-24T14:23:00.842Z,6
2022-11-24T14:24:10.961Z,5.9
2022-11-24T14:25:21.084Z,5.9
2022-11-24T14:26:31.196Z,5.9
2022-11-24T14:28:51.397Z,5.9
2022-11-24T14:30:01.509Z,5.9
2022-11-24T14:31:11.636Z,6
2022-11-24T14:32:21.746Z,5.9
2022-11-24T14:33:31.869Z,5.9
2022-11-24T14:34:41.976Z,5.9
2022-11-24T14:35:52.104Z,5.9
2022-11-24T14:37:02.231Z,5.9
2022-11-24T14:38:11.365Z,6
2022-11-24T14:39:21.470Z,5.9
2022-11-24T14:40:31.593Z,5.9
2022-11-24T14:41:41.715Z,5.9
2022-11-24T14:42:51.820Z,5.9
2022-11-24T14:44:01.953Z,5.9
2022-11-24T14:45:12.072Z,5.8
2022-11-24T14:46:22.192Z,5.8
2022-11-24T14:47:32.295Z,5.8
2022-11-24T14:48:42.422Z,5.8
2022-11-24T14:49:52.547Z,5.8
2022-11-24T14:51:02.652Z,5.8
2022-11-24T14:52:12.780Z,5.9
2022-11-24T14:53:21.915Z,5.9
2022-11-24T14:54:32.023Z,5.9
2022-11-24T14:55:41.156Z,5.9
2022-11-24T14:56:51.274Z,5.9
2022-11-24T14:58:01.399Z,5.9
2022-11-24T14:59:11.517Z,5.9
2022-11-24T15:00:21.630Z,5.8
2022-11-24T15:01:31.747Z,5.8
2022-11-24T15:02:41.875Z,5.8
2022-11-24T15:03:52.001Z,5.8
2022-11-24T15:05:02.105Z,5.8
2022-11-24T15:06:12.233Z,5.8
2022-11-24T15:07:22.353Z,5.8
2022-11-24T15:08:32.459Z,5.8
2022-11-24T15:09:42.578Z,5.8
2022-11-24T15:10:51.716Z,5.8
2022-11-24T15:12:01.825Z,5.9
2022-11-24T15:13:11.956Z,5.9
2022-11-24T15:14:22.076Z,5.9
2022-11-24T15:15:32.178Z,5.9
2022-11-24T15:16:42.310Z,5.9
2022-11-24T15:17:52.426Z,5.9
2022-11-24T15:19:02.530Z,5.9
2022-11-24T15:20:12.658Z,5.9
2022-11-24T15:21:22.785Z,5.9
2022-11-24T15:22:32.889Z,5.9
2022-11-24T15:23:43.021Z,5.9
2022-11-24T15:24:53.129Z,5.9
2022-11-24T15:27:13.482Z,5.8
2022-11-24T15:28:23.615Z,5.8
2022-11-24T15:29:33.721Z,5.8
2022-11-24T15:30:43.843Z,5.8
2022-11-24T15:31:53.000Z,5.8
2022-11-24T15:33:04.072Z,5.8
2022-11-24T15:34:14.192Z,5.8
2022-11-24T15:35:24.324Z,5.8
2022-11-24T15:36:34.430Z,5.8
2022-11-24T15:37:44.557Z,5.8
2022-11-24T15:38:54.662Z,5.8
2022-11-24T15:40:04.785Z,5.8
2022-11-24T15:41:13.912Z,5.8
2022-11-24T15:42:24.033Z,5.8
2022-11-24T15:43:34.149Z,5.9
2022-11-24T15:44:44.275Z,5.9
2022-11-24T15:45:54.399Z,5.9
2022-11-24T15:47:04.505Z,5.9
2022-11-24T15:48:14.633Z,5.9
2022-11-24T15:49:24.740Z,5.8
2022-11-24T15:50:34.866Z,5.8
2022-11-24T15:51:44.974Z,5.8
2022-11-24T15:52:55.103Z,5.8
2022-11-24T15:54:05.228Z,5.8
2022-11-24T15:55:15.326Z,5.8
2022-11-24T15:56:24.462Z,5.8
2022-11-24T15:57:34.589Z,5.7
2022-11-24T15:58:44.710Z,5.7
2022-11-24T15:59:54.815Z,5.7
2022-11-24T16:02:15.056Z,5.7
2022-11-24T16:03:25.185Z,5.6
2022-11-24T16:04:35.307Z,5.7
2022-11-24T16:05:44.440Z,5.7
2022-11-24T16:06:53.571Z,5.7
2022-11-24T16:08:03.838Z,5.7
2022-11-24T16:09:12.966Z,5.7
2022-11-24T16:10:23.087Z,5.7
2022-11-24T16:12:43.339Z,5.7
2022-11-24T16:13:53.451Z,5.7
2022-11-24T16:15:03.562Z,5.7
2022-11-24T16:16:13.684Z,5.7
2022-11-24T16:17:23.807Z,5.7
2022-11-24T16:18:33.928Z,5.7
2022-11-24T16:19:44.044Z,5.7
2022-11-24T16:20:54.147Z,5.7
2022-11-24T16:22:04.268Z,5.7
2022-11-24T16:23:14.399Z,5.7
2022-11-24T16:24:23.519Z,5.7
2022-11-24T16:25:33.645Z,5.7
2022-11-24T16:26:43.757Z,5.7
2022-11-24T16:27:53.888Z,5.7
2022-11-24T16:29:04.000Z,5.8
2022-11-24T16:30:14.110Z,5.8
2022-11-24T16:31:24.238Z,5.8
2022-11-24T16:32:34.349Z,5.8
2022-11-24T16:33:44.475Z,5.8
2022-11-24T16:34:54.580Z,5.8
2022-11-24T16:36:04.703Z,5.7
2022-11-24T16:37:14.819Z,5.7
2022-11-24T16:38:24.945Z,5.7
2022-11-24T16:39:34.076Z,5.7
2022-11-24T16:40:44.182Z,5.7
2022-11-24T16:41:54.306Z,5.7
2022-11-24T16:43:04.435Z,5.7
2022-11-24T16:44:14.538Z,5.7
2022-11-24T16:45:24.664Z,5.7
2022-11-24T16:46:34.792Z,5.7
2022-11-24T16:47:44.894Z,5.7
2022-11-24T16:48:55.015Z,5.7
2022-11-24T16:50:05.139Z,5.7
2022-11-24T16:51:15.255Z,5.7
2022-11-24T16:53:35.492Z,5.6